• Join FlightAware (Why Join?)
  • Login
  • US Flag 
09:53PM EDT


 

Airport Tracker/Info


-or-


 

Live Flight TrackerFlight Track Log ✈ CHH7162 ✈ 30-Apr-2013 ✈ ZUCK / CKG - ZBAA / PEK

Flight Track Log - Related Links

Times and Time Zones

All times are in EDT time to prevent confusion due to time zone crossing. See the CHH7162 flight status page for this flight to view local times or setup timezone preferences in your user account.

Time Position Orientation Groundspeed Altitude Reporting Facility
EDT Latitude Longitude Course Direction KTS MPH feet Rate Location/Type
05:56AM 29.8088 106.7144 35° Northeast  Level Estimated
05:57AM 29.8981 106.7879 35° Northeast  Level Estimated
05:58AM 29.9874 106.8615 36° Northeast  Level Estimated
05:59AM 30.0767 106.9353 36° Northeast  Level Estimated
06:00AM 30.1659 107.0092 36° Northeast  Level Estimated
06:01AM 30.2551 107.0832 36° Northeast  Level Estimated
06:02AM 30.3442 107.1574 36° Northeast  Level Estimated
06:03AM 30.4333 107.2317 36° Northeast  Level Estimated
06:04AM 30.5224 107.3062 36° Northeast  Level Estimated
06:05AM 30.6114 107.3807 36° Northeast  Level Estimated
06:06AM 30.7003 107.4555 36° Northeast  Level Estimated
06:07AM 30.7893 107.5303 36° Northeast  Level Estimated
06:08AM 30.8782 107.6053 36° Northeast  Level Estimated
06:09AM 30.9670 107.6804 36° Northeast  Level Estimated
06:10AM 31.0558 107.7557 36° Northeast  Level Estimated
06:11AM 31.1446 107.8311 36° Northeast  Level Estimated
06:12AM 31.2333 107.9067 36° Northeast  Level Estimated
06:13AM 31.3219 107.9824 36° Northeast  Level Estimated
06:14AM 31.4105 108.0582 36° Northeast  Level Estimated
06:15AM 31.4991 108.1342 36° Northeast  Level Estimated
06:16AM 31.5877 108.2103 36° Northeast  Level Estimated
06:17AM 31.6761 108.2866 36° Northeast  Level Estimated
06:18AM 31.7646 108.3630 36° Northeast  Level Estimated
06:19AM 31.8530 108.4396 36° Northeast  Level Estimated
06:20AM 31.9413 108.5163 36° Northeast  Level Estimated
06:21AM 32.0296 108.5931 36° Northeast  Level Estimated
06:22AM 32.1179 108.6701 36° Northeast  Level Estimated
06:23AM 32.1981 108.7402 36° Northeast  Level Estimated
06:24AM 32.2782 108.8105 37° Northeast  Level Estimated
06:25AM 32.3583 108.8809 37° Northeast  Level Estimated
06:26AM 32.4384 108.9514 37° Northeast  Level Estimated
06:27AM 32.5185 109.0220 37° Northeast  Level Estimated
06:28AM 32.5985 109.0928 37° Northeast  Level Estimated
06:29AM 32.6784 109.1637 37° Northeast  Level Estimated
06:30AM 32.7583 109.2347 37° Northeast  Level Estimated
06:31AM 32.8382 109.3058 37° Northeast  Level Estimated
06:32AM 32.9181 109.3771 37° Northeast  Level Estimated
06:33AM 32.9979 109.4485 37° Northeast  Level Estimated
06:34AM 33.0776 109.5200 37° Northeast  Level Estimated
06:35AM 33.1573 109.5917 37° Northeast  Level Estimated
06:36AM 33.2370 109.6634 37° Northeast  Level Estimated
06:37AM 33.3166 109.7354 37° Northeast  Level Estimated
06:38AM 33.3962 109.8074 37° Northeast  Level Estimated
06:39AM 33.4758 109.8796 37° Northeast  Level Estimated
06:40AM 33.5553 109.9519 37° Northeast  Level Estimated
06:41AM 33.6347 110.0243 37° Northeast  Level Estimated
06:42AM 33.7142 110.0969 37° Northeast  Level Estimated
06:43AM 33.7935 110.1696 37° Northeast  Level Estimated
06:44AM 33.8729 110.2425 37° Northeast  Level Estimated
06:45AM 33.9522 110.3155 37° Northeast  Level Estimated
06:46AM 34.0314 110.3886 37° Northeast  Level Estimated
06:47AM 34.1106 110.4618 37° Northeast  Level Estimated
06:48AM 34.1898 110.5352 37° Northeast  Level Estimated
06:49AM 34.2689 110.6087 38° Northeast  Level Estimated
06:50AM 34.3480 110.6824 38° Northeast  Level Estimated
06:51AM 34.4270 110.7562 38° Northeast  Level Estimated
06:52AM 34.5060 110.8302 38° Northeast  Level Estimated
06:53AM 34.5849 110.9043 38° Northeast  Level Estimated
06:54AM 34.6638 110.9785 38° Northeast  Level Estimated
06:55AM 34.7427 111.0529 38° Northeast  Level Estimated
06:56AM 34.8215 111.1274 38° Northeast  Level Estimated
06:57AM 34.9003 111.2020 38° Northeast  Level Estimated
06:58AM 34.9790 111.2768 38° Northeast  Level Estimated
06:59AM 35.0577 111.3518 38° Northeast  Level Estimated
07:00AM 35.1363 111.4269 38° Northeast  Level Estimated
07:01AM 35.2149 111.5021 38° Northeast  Level Estimated
07:02AM 35.2934 111.5775 38° Northeast  Level Estimated
07:03AM 35.3719 111.6530 38° Northeast  Level Estimated
07:04AM 35.4503 111.7287 38° Northeast  Level Estimated
07:05AM 35.5287 111.8045 38° Northeast  Level Estimated
07:06AM 35.6070 111.8805 38° Northeast  Level Estimated
07:07AM 35.6853 111.9566 38° Northeast  Level Estimated
07:08AM 35.7636 112.0329 38° Northeast  Level Estimated
07:09AM 35.8418 112.1093 38° Northeast  Level Estimated
07:10AM 35.9199 112.1858 38° Northeast  Level Estimated
07:11AM 35.9980 112.2626 38° Northeast  Level Estimated
07:12AM 36.0761 112.3394 39° Northeast  Level Estimated
07:13AM 36.1541 112.4165 39° Northeast  Level Estimated
07:14AM 36.2320 112.4936 39° Northeast  Level Estimated
07:15AM 36.3099 112.5710 39° Northeast  Level Estimated
07:16AM 36.3878 112.6484 39° Northeast  Level Estimated
07:17AM 36.4656 112.7261 39° Northeast  Level Estimated
07:18AM 36.5433 112.8039 39° Northeast  Level Estimated
07:19AM 36.6210 112.8818 39° Northeast  Level Estimated
07:20AM 36.6987 112.9599 39° Northeast  Level Estimated
07:21AM 36.7787 113.0407 39° Northeast  Level Estimated
07:22AM 36.8587 113.1215 39° Northeast  Level Estimated
07:23AM 36.9386 113.2026 39° Northeast  Level Estimated
07:24AM 37.0185 113.2838 39° Northeast  Level Estimated
07:25AM 37.0983 113.3652 39° Northeast  Level Estimated
07:26AM 37.1780 113.4468 39° Northeast  Level Estimated
07:27AM 37.2577 113.5285 39° Northeast  Level Estimated
07:28AM 37.3373 113.6104 39° Northeast  Level Estimated
07:29AM 37.4169 113.6925 39° Northeast  Level Estimated
07:30AM 37.4964 113.7748 39° Northeast  Level Estimated
07:31AM 37.5759 113.8572 39° Northeast  Level Estimated
07:32AM 37.6553 113.9398 39° Northeast  Level Estimated
07:33AM 37.7347 114.0226 40° Northeast  Level Estimated
07:34AM 37.8140 114.1056 40° Northeast  Level Estimated
07:35AM 37.8932 114.1887 40° Northeast  Level Estimated
07:36AM 37.9724 114.2720 40° Northeast  Level Estimated
07:37AM 38.0515 114.3555 40° Northeast  Level Estimated
07:38AM 38.1306 114.4392 40° Northeast  Level Estimated
07:39AM 38.2096 114.5231 40° Northeast  Level Estimated
07:40AM 38.2885 114.6071 40° Northeast  Level Estimated
07:41AM 38.3674 114.6914 40° Northeast  Level Estimated
07:42AM 38.4462 114.7758 40° Northeast  Level Estimated
07:43AM 38.5250 114.8604 40° Northeast  Level Estimated
07:44AM 38.6037 114.9452 40° Northeast  Level Estimated
07:45AM 38.6823 115.0301 40° Northeast  Level Estimated
07:46AM 38.7609 115.1153 40° Northeast  Level Estimated
07:47AM 38.8394 115.2006 40° Northeast  Level Estimated
07:48AM 38.9178 115.2861 40° Northeast  Level Estimated
07:49AM 38.9962 115.3719 40° Northeast  Level Estimated
07:50AM 39.0746 115.4578 40° Northeast  Level Estimated
07:51AM 39.1528 115.5439 40° Northeast  Level Estimated
07:52AM 39.2310 115.6302 41° Northeast  Level Estimated
07:53AM 39.3091 115.7167 41° Northeast  Level Estimated
07:54AM 39.3872 115.8034 41° Northeast  Level Estimated
07:55AM 39.4652 115.8902 41° Northeast  Level Estimated
07:56AM 39.5432 115.9773 41° Northeast  Level Estimated
07:57AM 39.6210 116.0646 41° Northeast  Level Estimated
07:58AM 39.6988 116.1520 41° Northeast  Level Estimated
07:59AM 39.7766 116.2397 41° Northeast  Level Estimated
08:00AM 39.8543 116.3275 41° Northeast  Level Estimated
08:01AM 39.9319 116.4156 41° Northeast  Level Estimated
08:02AM 40.0094 116.5039 41° Northeast  Level Estimated
08:03AM 40.0801 116.5846 41° Northeast  Level Estimated
08:04AM 40.0801 116.5846 288° West  Level Estimated
08:05AM 40.0801 116.5846 288° West  Level Estimated
08:06AM 40.0801 116.5846 288° West  Level Estimated
08:07AM 40.0801 116.5846 288° West  Level Estimated
08:08AM 40.0801 116.5846 288° West  Level Estimated
08:09AM 40.0801 116.5846 288° West  Level Estimated
08:10AM 40.0801 116.5846 288° West  Level Estimated
08:11AM 40.0801 116.5846 288° West  Level Estimated
08:12AM 40.0801 116.5846 288° West  Level Estimated
08:13AM 40.0801 116.5846 288° West  Level Estimated
08:14AM 40.0801 116.5846 288° West  Level Estimated
08:15AM 40.0801 116.5846 288° West  Level Estimated
08:16AM 40.0801 116.5846 288° West  Level Estimated